createdAt,value
2018-11-20T00:01:21.975Z,21.43
2018-11-20T00:04:11.787Z,19.00
2018-11-20T00:07:01.671Z,18.60
2018-11-20T00:09:52.123Z,20.32
2018-11-20T00:12:42.684Z,20.68
2018-11-20T00:15:32.631Z,21.00
2018-11-20T00:18:22.504Z,19.97
2018-11-20T00:21:12.219Z,19.57
2018-11-20T00:24:01.587Z,21.57
2018-11-20T00:26:50.673Z,19.83
2018-11-20T00:29:40.138Z,19.70
2018-11-20T00:32:30.201Z,19.97
2018-11-20T00:35:13.732Z,19.65
2018-11-20T00:38:03.223Z,17.37
2018-11-20T00:40:53.111Z,18.77
2018-11-20T00:43:43.353Z,20.55
2018-11-20T00:46:32.759Z,20.43
2018-11-20T00:52:30.772Z,19.35
2018-11-20T00:55:21.797Z,19.10
2018-11-20T01:01:03.881Z,19.30
2018-11-20T01:03:53.128Z,19.37
2018-11-20T01:06:42.981Z,19.77
2018-11-20T01:09:35.162Z,19.27
2018-11-20T01:12:22.277Z,19.57
2018-11-20T01:15:11.735Z,15.40
2018-11-20T01:18:01.291Z,18.47
2018-11-20T01:20:51.126Z,20.30
2018-11-20T01:23:40.856Z,18.83
2018-11-20T01:26:30.181Z,19.27
2018-11-20T01:29:38.849Z,17.40
2018-11-20T01:32:29.103Z,20.97
2018-11-20T01:35:18.814Z,18.27
2018-11-20T01:38:08.586Z,18.52
2018-11-20T01:40:58.117Z,18.33
2018-11-20T01:43:47.842Z,18.67
2018-11-20T01:46:37.410Z,18.53
2018-11-20T01:49:46.780Z,19.35
2018-11-20T01:52:36.568Z,18.95
2018-11-20T01:55:26.547Z,19.20
2018-11-20T01:58:16.121Z,18.13
2018-11-20T02:01:06.368Z,18.10
2018-11-20T02:03:56.639Z,19.47
2018-11-20T02:06:46.193Z,16.83
2018-11-20T02:09:36.499Z,20.80
2018-11-20T02:13:34.154Z,18.23
2018-11-20T02:15:34.863Z,16.57
2018-11-20T02:18:29.905Z,18.23
2018-11-20T02:21:19.284Z,19.62
2018-11-20T02:24:09.039Z,19.63
2018-11-20T02:26:58.960Z,19.50
2018-11-20T02:29:49.371Z,19.32
2018-11-20T02:32:39.293Z,18.77
2018-11-20T02:35:22.186Z,20.87
2018-11-20T02:38:12.334Z,19.60
2018-11-20T02:41:02.373Z,18.93
2018-11-20T02:43:52.065Z,20.13
2018-11-20T02:46:42.687Z,18.73
2018-11-20T02:49:31.695Z,20.15
2018-11-20T02:52:21.291Z,19.13
2018-11-20T02:55:03.927Z,20.37
2018-11-20T02:57:54.073Z,18.87
2018-11-20T03:00:36.522Z,20.17
2018-11-20T03:03:26.550Z,19.77
2018-11-20T03:06:15.874Z,19.70
2018-11-20T03:09:06.149Z,17.80
2018-11-20T03:12:14.625Z,20.37
2018-11-20T03:15:04.079Z,19.77
2018-11-20T03:17:53.826Z,20.30
2018-11-20T03:21:02.392Z,20.95
2018-11-20T03:23:51.769Z,20.00
2018-11-20T03:26:41.399Z,17.37
2018-11-20T03:30:10.137Z,19.97
2018-11-20T03:32:57.938Z,17.53
2018-11-20T03:35:47.644Z,19.87
2018-11-20T03:38:37.698Z,20.33
2018-11-20T03:41:45.917Z,19.10
2018-11-20T03:44:36.004Z,19.95
2018-11-20T03:47:25.683Z,19.32
2018-11-20T03:50:15.664Z,20.57
2018-11-20T03:53:05.116Z,22.17
2018-11-20T03:55:54.781Z,21.33
2018-11-20T03:58:38.540Z,19.60
2018-11-20T04:01:28.037Z,20.07
2018-11-20T04:04:18.367Z,12.25
2018-11-20T04:07:17.847Z,17.90
2018-11-20T04:10:07.440Z,18.63
2018-11-20T04:13:08.899Z,14.13
2018-11-20T04:15:58.602Z,21.25
2018-11-20T04:21:20.861Z,20.50
2018-11-20T04:24:11.143Z,19.77
2018-11-20T04:27:00.881Z,20.17
2018-11-20T04:29:47.408Z,19.02
2018-11-20T04:32:36.587Z,19.43
2018-11-20T04:35:52.092Z,19.98
2018-11-20T04:38:18.520Z,19.83
2018-11-20T04:41:08.274Z,16.07
2018-11-20T04:43:57.962Z,17.30
2018-11-20T04:46:48.494Z,19.55
2018-11-20T04:49:38.214Z,19.97
2018-11-20T04:52:27.618Z,20.35
2018-11-20T04:55:17.244Z,17.93
2018-11-20T04:58:07.119Z,20.80
2018-11-20T05:00:56.730Z,19.10
2018-11-20T05:03:46.328Z,17.17
2018-11-20T05:06:36.289Z,19.83
2018-11-20T05:09:29.332Z,16.82
2018-11-20T05:12:19.109Z,19.90
2018-11-20T05:15:09.380Z,22.40
2018-11-20T05:18:00.009Z,23.75
2018-11-20T05:20:49.863Z,23.07
2018-11-20T05:23:58.289Z,19.48
2018-11-20T05:26:48.254Z,15.07
2018-11-20T05:29:38.084Z,25.70
2018-11-20T05:32:28.650Z,18.47
2018-11-20T05:35:18.587Z,20.40
2018-11-20T05:37:55.873Z,21.87
2018-11-20T05:40:45.565Z,20.23
2018-11-20T05:43:34.936Z,19.67
2018-11-20T05:46:25.451Z,19.85
2018-11-20T05:49:24.024Z,19.47
2018-11-20T05:52:13.821Z,19.82
2018-11-20T05:57:46.161Z,24.72
2018-11-20T06:00:35.910Z,26.40
2018-11-20T06:03:26.066Z,25.55
2018-11-20T06:06:16.426Z,22.40
2018-11-20T06:09:06.607Z,21.73
2018-11-20T06:12:44.838Z,24.07
2018-11-20T06:14:48.235Z,22.87
2018-11-20T06:17:45.923Z,20.70
2018-11-20T06:20:36.366Z,20.80
2018-11-20T06:23:25.757Z,21.37
2018-11-20T06:29:11.142Z,21.93
2018-11-20T06:32:00.912Z,25.20
2018-11-20T06:34:50.670Z,19.40
2018-11-20T06:37:40.149Z,20.13
2018-11-20T06:40:21.347Z,16.30
2018-11-20T06:43:15.996Z,18.03
2018-11-20T06:46:00.257Z,19.25
2018-11-20T06:48:50.592Z,23.20
2018-11-20T06:51:39.643Z,19.20
2018-11-20T06:57:19.089Z,19.50
2018-11-20T07:00:10.847Z,14.17
2018-11-20T07:02:55.331Z,19.23
2018-11-20T07:05:44.695Z,16.90
2018-11-20T07:08:34.228Z,21.20
2018-11-20T07:11:23.858Z,18.17
2018-11-20T07:14:32.944Z,20.53
2018-11-20T07:17:26.670Z,19.52
2018-11-20T07:23:27.766Z,15.87
2018-11-20T07:26:32.951Z,16.90
2018-11-20T07:29:22.664Z,15.65
2018-11-20T07:32:12.800Z,18.80
2018-11-20T07:35:02.333Z,19.50
2018-11-20T07:37:52.251Z,18.10
2018-11-20T07:40:42.536Z,18.90
2018-11-20T07:43:32.185Z,19.43
2018-11-20T07:46:22.279Z,19.40
2018-11-20T07:49:12.173Z,19.87
2018-11-20T07:52:02.338Z,19.20
2018-11-20T07:55:00.161Z,15.37
2018-11-20T07:57:41.822Z,19.13
2018-11-20T08:00:32.546Z,18.10
2018-11-20T08:03:21.949Z,21.23
2018-11-20T08:06:12.838Z,21.30
2018-11-20T08:14:41.762Z,20.23
2018-11-20T08:17:31.381Z,22.93
2018-11-20T08:20:20.885Z,20.97
2018-11-20T08:23:10.274Z,19.35
2018-11-20T08:25:59.708Z,15.98
2018-11-20T08:28:49.488Z,15.97
2018-11-20T08:31:34.218Z,16.80
2018-11-20T08:34:24.176Z,16.63
2018-11-20T08:37:14.373Z,16.47
2018-11-20T08:40:03.924Z,17.13
2018-11-20T08:42:54.146Z,18.05
2018-11-20T08:45:44.121Z,18.75
2018-11-20T08:48:34.210Z,16.77
2018-11-20T08:51:23.757Z,18.02
2018-11-20T08:54:13.314Z,17.87
2018-11-20T08:57:03.578Z,22.03
2018-11-20T08:59:53.009Z,18.97
2018-11-20T09:02:43.081Z,17.80
2018-11-20T09:05:33.164Z,20.90
2018-11-20T09:08:23.294Z,17.60
2018-11-20T09:11:12.841Z,22.97
2018-11-20T09:14:03.410Z,19.07
2018-11-20T09:16:53.229Z,18.97
2018-11-20T09:19:43.170Z,19.17
2018-11-20T09:22:32.673Z,18.50
2018-11-20T09:25:22.233Z,20.83
2018-11-20T09:28:30.623Z,21.90
2018-11-20T09:31:20.241Z,19.47
2018-11-20T09:34:28.457Z,19.27
2018-11-20T09:37:17.951Z,17.77
2018-11-20T09:40:44.627Z,16.62
2018-11-20T09:43:34.283Z,13.90
2018-11-20T09:46:25.907Z,17.13
2018-11-20T09:49:15.031Z,16.70
2018-11-20T09:52:05.272Z,18.77
2018-11-20T09:54:54.772Z,19.40
2018-11-20T09:57:43.773Z,18.57
2018-11-20T10:00:33.216Z,16.20
2018-11-20T10:03:32.286Z,16.27
2018-11-20T10:06:21.927Z,18.27
2018-11-20T10:09:11.754Z,17.52
2018-11-20T10:12:00.884Z,18.20
2018-11-20T10:14:50.640Z,19.70
2018-11-20T10:17:32.824Z,17.93
2018-11-20T10:20:22.316Z,16.33
2018-11-20T10:23:12.818Z,15.37
2018-11-20T10:26:02.408Z,16.57
2018-11-20T10:28:52.209Z,16.20
2018-11-20T10:31:41.392Z,13.93
2018-11-20T10:34:31.291Z,16.77
2018-11-20T10:37:20.793Z,16.50
2018-11-20T10:42:53.170Z,17.70
2018-11-20T10:45:43.710Z,15.98
2018-11-20T10:48:32.801Z,14.70
2018-11-20T10:51:22.227Z,15.80
2018-11-20T10:54:12.160Z,14.03
2018-11-20T10:57:01.728Z,21.23
2018-11-20T10:59:51.425Z,54.90
2018-11-20T11:02:42.212Z,37.80
2018-11-20T11:05:55.818Z,42.27
2018-11-20T11:08:44.704Z,18.03
2018-11-20T11:11:34.493Z,41.00
2018-11-20T11:14:24.057Z,14.73
2018-11-20T11:17:13.881Z,18.90
2018-11-20T11:20:03.411Z,16.53
2018-11-20T11:22:54.254Z,19.90
2018-11-20T11:25:43.761Z,23.70
2018-11-20T11:28:33.200Z,14.23
2018-11-20T11:31:41.621Z,13.98
2018-11-20T11:34:31.507Z,26.83
2018-11-20T11:37:40.498Z,15.58
2018-11-20T11:40:29.595Z,21.33
2018-11-20T11:43:19.388Z,19.53
2018-11-20T11:46:09.019Z,46.87
2018-11-20T11:48:59.261Z,30.05
2018-11-20T11:51:49.182Z,40.53
2018-11-20T11:54:25.614Z,25.60
2018-11-20T11:57:15.142Z,14.53
2018-11-20T12:00:04.418Z,28.07
2018-11-20T12:05:42.982Z,35.98
2018-11-20T12:08:32.623Z,31.97
2018-11-20T12:11:23.133Z,29.70
2018-11-20T12:14:12.958Z,18.77
2018-11-20T12:17:03.646Z,17.00
2018-11-20T12:19:53.723Z,26.00
2018-11-20T12:23:02.994Z,26.80
2018-11-20T12:26:09.625Z,17.30
2018-11-20T12:28:53.029Z,52.97
2018-11-20T12:31:31.205Z,29.70
2018-11-20T12:34:21.381Z,28.25
2018-11-20T12:37:15.365Z,34.80
2018-11-20T12:40:04.321Z,43.10
2018-11-20T12:42:46.524Z,24.13
2018-11-20T12:46:13.487Z,19.77
2018-11-20T12:49:03.152Z,39.93
2018-11-20T12:51:52.486Z,36.90
2018-11-20T12:54:42.252Z,40.10
2018-11-20T12:57:34.030Z,41.37
2018-11-20T13:03:13.159Z,46.88
2018-11-20T13:06:03.867Z,44.13
2018-11-20T13:09:26.208Z,37.33
2018-11-20T13:11:44.526Z,17.75
2018-11-20T13:14:34.496Z,28.93
2018-11-20T13:17:25.301Z,31.17
2018-11-20T13:20:18.968Z,36.42
2018-11-20T13:23:10.573Z,21.82
2018-11-20T13:26:01.297Z,22.37
2018-11-20T13:28:49.866Z,28.40
2018-11-20T13:34:29.555Z,21.50
2018-11-20T13:37:18.989Z,29.50
2018-11-20T13:40:08.405Z,24.10
2018-11-20T13:43:02.208Z,19.67
2018-11-20T13:45:55.188Z,15.43
2018-11-20T13:48:42.822Z,21.13
2018-11-20T13:51:32.591Z,17.33
2018-11-20T13:54:21.598Z,21.70
2018-11-20T13:57:11.130Z,20.00
2018-11-20T14:00:01.667Z,14.98
2018-11-20T14:05:43.208Z,16.47
2018-11-20T14:08:26.193Z,19.20
2018-11-20T14:11:18.028Z,18.25
2018-11-20T14:14:07.937Z,20.80
2018-11-20T14:19:51.241Z,18.43
2018-11-20T14:22:41.323Z,27.30
2018-11-20T14:25:39.985Z,19.47
2018-11-20T14:28:28.828Z,19.90
2018-11-20T14:31:19.195Z,19.07
2018-11-20T14:34:08.863Z,18.20
2018-11-20T14:37:16.717Z,18.50
2018-11-20T14:40:05.835Z,22.20
2018-11-20T14:43:17.919Z,19.56
2018-11-20T14:45:57.027Z,17.50
2018-11-20T14:48:44.134Z,20.40
2018-11-20T14:51:33.325Z,30.23
2018-11-20T14:54:18.913Z,15.67
2018-11-20T14:57:08.585Z,16.20
2018-11-20T15:03:06.591Z,28.40
2018-11-20T15:05:55.728Z,20.07
2018-11-20T15:08:39.624Z,18.87
2018-11-20T15:11:29.135Z,21.47
2018-11-20T15:14:18.999Z,17.73
2018-11-20T15:17:09.121Z,19.30
2018-11-20T15:19:59.301Z,16.30
2018-11-20T15:22:49.904Z,12.75
2018-11-20T15:25:31.366Z,19.47
2018-11-20T15:28:21.466Z,18.73
2018-11-20T15:31:11.522Z,20.63
2018-11-20T15:34:01.566Z,20.17
2018-11-20T15:36:44.582Z,11.87
2018-11-20T15:39:34.577Z,15.23
2018-11-20T15:42:24.281Z,21.20
2018-11-20T15:45:14.557Z,24.77
2018-11-20T15:48:14.969Z,16.87
2018-11-20T15:51:05.903Z,22.62
2018-11-20T15:53:54.620Z,19.67
2018-11-20T15:56:44.191Z,17.67
2018-11-20T15:59:33.933Z,24.10
2018-11-20T16:05:13.602Z,27.00
2018-11-20T16:08:03.598Z,24.20
2018-11-20T16:10:53.216Z,22.10
2018-11-20T16:13:37.644Z,20.33
2018-11-20T16:16:28.239Z,21.37
2018-11-20T16:19:31.401Z,28.50
2018-11-20T16:22:21.740Z,20.17
2018-11-20T16:25:11.844Z,21.23
2018-11-20T16:28:01.559Z,16.60
2018-11-20T16:30:53.192Z,21.17
2018-11-20T16:36:30.539Z,17.53
2018-11-20T16:39:20.345Z,15.97
2018-11-20T16:42:10.303Z,21.50
2018-11-20T16:47:54.725Z,17.77
2018-11-20T16:50:44.601Z,21.40
2018-11-20T16:53:33.831Z,20.87
2018-11-20T16:56:22.864Z,18.17
2018-11-20T16:59:12.897Z,19.50
2018-11-20T17:02:02.612Z,20.80
2018-11-20T17:04:51.829Z,26.53
2018-11-20T17:07:40.869Z,26.27
2018-11-20T17:10:54.687Z,19.60
2018-11-20T17:13:10.454Z,20.10
2018-11-20T17:16:00.415Z,20.90
2018-11-20T17:18:50.255Z,25.23
2018-11-20T17:21:39.784Z,25.27
2018-11-20T17:24:29.039Z,22.80
2018-11-20T17:27:19.177Z,25.07
2018-11-20T17:30:05.175Z,24.97
2018-11-20T17:32:54.341Z,24.43
2018-11-20T17:38:35.312Z,28.07
2018-11-20T17:41:24.892Z,26.80
2018-11-20T17:44:14.419Z,26.07
2018-11-20T17:47:03.396Z,21.70
2018-11-20T17:49:53.141Z,24.30
2018-11-20T17:52:42.913Z,25.00
2018-11-20T17:55:32.319Z,28.23
2018-11-20T17:58:22.212Z,28.00
2018-11-20T18:01:18.343Z,28.10
2018-11-20T18:04:08.430Z,29.20
2018-11-20T18:07:00.100Z,27.98
2018-11-20T18:09:48.188Z,30.37
2018-11-20T18:12:40.010Z,28.95
2018-11-20T18:15:48.471Z,28.40
2018-11-20T18:18:38.058Z,28.20
2018-11-20T18:21:27.873Z,27.63
2018-11-20T18:24:23.453Z,26.70
2018-11-20T18:27:00.505Z,26.07
2018-11-20T18:29:39.781Z,49.70
2018-11-20T18:32:28.798Z,43.97
2018-11-20T18:35:18.011Z,32.17
2018-11-20T18:38:07.419Z,32.35
2018-11-20T18:40:56.953Z,31.00
2018-11-20T18:43:47.515Z,33.83
2018-11-20T18:46:33.455Z,33.73
2018-11-20T18:49:23.080Z,30.73
2018-11-20T18:55:03.807Z,32.60
2018-11-20T18:57:55.789Z,30.10
2018-11-20T19:00:44.944Z,29.63
2018-11-20T19:03:34.419Z,30.02
2018-11-20T19:06:23.613Z,31.30
2018-11-20T19:09:13.594Z,43.92
2018-11-20T19:12:04.030Z,41.10
2018-11-20T19:14:54.269Z,41.77
2018-11-20T19:17:43.760Z,37.87
2018-11-20T19:20:33.373Z,35.63
2018-11-20T19:23:23.213Z,34.27
2018-11-20T19:26:09.577Z,36.10
2018-11-20T19:28:58.552Z,37.57
2018-11-20T19:32:36.704Z,31.47
2018-11-20T19:34:38.331Z,30.07
2018-11-20T19:37:28.113Z,35.07
2018-11-20T19:40:23.844Z,36.00
2018-11-20T19:43:08.555Z,33.83
2018-11-20T19:45:56.469Z,36.70
2018-11-20T19:48:46.761Z,36.33
2018-11-20T19:51:35.915Z,38.27
2018-11-20T19:54:26.408Z,37.48
2018-11-20T19:57:15.840Z,36.60
2018-11-20T20:00:05.517Z,33.77
2018-11-20T20:02:55.624Z,32.47
2018-11-20T20:06:33.590Z,29.80
2018-11-20T20:08:35.243Z,33.23
2018-11-20T20:11:25.689Z,35.73
2018-11-20T20:14:15.192Z,34.50
2018-11-20T20:17:04.731Z,31.07
2018-11-20T20:19:54.171Z,30.10
2018-11-20T20:22:45.071Z,27.57
2018-11-20T20:25:35.313Z,30.85
2018-11-20T20:28:25.575Z,30.20
2018-11-20T20:31:14.893Z,33.30
2018-11-20T20:34:06.366Z,44.20
2018-11-20T20:37:14.979Z,44.67
2018-11-20T20:40:05.335Z,55.40
2018-11-20T20:43:43.316Z,53.97
2018-11-20T20:48:35.994Z,37.63
2018-11-20T20:51:25.981Z,29.67
2018-11-20T20:54:18.792Z,28.43
2018-11-20T20:57:05.427Z,32.30
2018-11-20T20:59:55.817Z,32.43
2018-11-20T21:02:45.117Z,35.80
2018-11-20T21:11:26.505Z,43.47
2018-11-20T21:14:17.439Z,41.43
2018-11-20T21:17:07.166Z,63.55
2018-11-20T21:19:57.098Z,41.25
2018-11-20T21:22:58.023Z,41.20
2018-11-20T21:25:47.988Z,35.80
2018-11-20T21:28:37.847Z,42.97
2018-11-20T21:31:45.737Z,33.60
2018-11-20T21:34:35.313Z,29.27
2018-11-20T21:37:24.962Z,32.03
2018-11-20T21:40:14.436Z,31.87
2018-11-20T21:43:06.064Z,33.57
2018-11-20T21:45:48.018Z,37.37
2018-11-20T21:48:37.596Z,41.00
2018-11-20T21:51:27.196Z,42.40
2018-11-20T21:54:17.365Z,38.53
2018-11-20T21:57:07.325Z,38.03
2018-11-20T22:03:30.578Z,36.33
2018-11-20T22:09:08.652Z,37.17
2018-11-20T22:11:58.270Z,33.67
2018-11-20T22:14:39.012Z,31.70
2018-11-20T22:17:29.339Z,30.05
2018-11-20T22:20:19.096Z,31.33
2018-11-20T22:23:09.179Z,32.25
2018-11-20T22:25:58.550Z,39.67
2018-11-20T22:28:48.162Z,44.63
2018-11-20T22:31:37.991Z,46.23
2018-11-20T22:34:48.078Z,45.13
2018-11-20T22:37:37.886Z,44.35
2018-11-20T22:40:27.610Z,42.38
2018-11-20T22:43:12.074Z,41.60
2018-11-20T22:46:02.066Z,42.17
2018-11-20T22:48:51.899Z,40.90
2018-11-20T22:51:41.863Z,37.05
2018-11-20T22:54:31.353Z,71.87
2018-11-20T22:57:21.051Z,43.00
2018-11-20T23:00:11.218Z,44.90
2018-11-20T23:03:20.377Z,38.67
2018-11-20T23:06:07.271Z,31.17
2018-11-20T23:08:38.702Z,35.87
2018-11-20T23:11:10.745Z,33.98
2018-11-20T23:13:41.836Z,37.63
2018-11-20T23:16:12.981Z,56.10
2018-11-20T23:18:44.416Z,57.80
2018-11-20T23:21:16.194Z,40.55
2018-11-20T23:23:47.384Z,38.42
2018-11-20T23:26:18.456Z,42.23
2018-11-20T23:28:49.593Z,48.53
2018-11-20T23:31:21.165Z,45.00
2018-11-20T23:34:12.674Z,34.67
2018-11-20T23:36:44.852Z,31.23
2018-11-20T23:39:16.598Z,29.42
2018-11-20T23:41:47.706Z,30.00
2018-11-20T23:44:18.794Z,28.57
2018-11-20T23:46:50.242Z,28.27
2018-11-20T23:49:22.786Z,27.82
2018-11-20T23:51:54.308Z,27.50
2018-11-20T23:54:26.227Z,28.50
2018-11-20T23:56:57.529Z,29.53
2018-11-20T23:59:28.841Z,26.90
